createdAt,value
2022-11-28T00:01:34.327Z,80.98
2022-11-28T00:04:02.723Z,81.05
2022-11-28T00:06:30.802Z,81.21
2022-11-28T00:08:59.396Z,81.28
2022-11-28T00:11:27.689Z,81.55
2022-11-28T00:13:55.927Z,81.49
2022-11-28T00:16:24.530Z,81.54
2022-11-28T00:18:54.538Z,81.77
2022-11-28T00:21:24.824Z,81.94
2022-11-28T00:23:52.720Z,81.93
2022-11-28T00:26:22.255Z,82.07
2022-11-28T00:28:49.935Z,81.97
2022-11-28T00:31:21.930Z,82.25
2022-11-28T00:33:50.587Z,82.52
2022-11-28T00:36:18.744Z,82.62
2022-11-28T00:38:46.562Z,82.65
2022-11-28T00:41:15.904Z,82.58
2022-11-28T00:43:44.374Z,82.38
2022-11-28T00:46:13.308Z,82.31
2022-11-28T00:48:41.237Z,82.57
2022-11-28T00:51:12.461Z,82.66
2022-11-28T00:53:42.560Z,82.39
2022-11-28T00:56:11.776Z,82.59
2022-11-28T00:58:40.043Z,82.38
2022-11-28T01:01:28.143Z,82.48
2022-11-28T01:03:57.263Z,82.65
2022-11-28T01:06:30.452Z,82.95
2022-11-28T01:08:59.337Z,83.11
2022-11-28T01:11:27.575Z,83.21
2022-11-28T01:13:56.227Z,83.22
2022-11-28T01:16:24.000Z,83.26
2022-11-28T01:18:51.743Z,83.38
2022-11-28T01:21:20.231Z,83.45
2022-11-28T01:23:48.509Z,83.38
2022-11-28T01:26:17.795Z,83.20
2022-11-28T01:28:46.094Z,83.20
2022-11-28T01:31:15.495Z,83.43
2022-11-28T01:33:43.472Z,83.41
2022-11-28T01:36:12.118Z,83.49
2022-11-28T01:38:39.988Z,83.51
2022-11-28T01:41:08.438Z,83.66
2022-11-28T01:43:36.506Z,83.60
2022-11-28T01:46:05.020Z,83.49
2022-11-28T01:48:34.982Z,83.14
2022-11-28T01:51:06.534Z,83.34
2022-11-28T01:53:36.578Z,83.16
2022-11-28T01:56:14.132Z,83.22
2022-11-28T01:58:44.381Z,83.08
2022-11-28T02:01:12.988Z,83.17
2022-11-28T02:03:45.381Z,83.45
2022-11-28T02:06:14.198Z,83.51
2022-11-28T02:08:42.270Z,83.19
2022-11-28T02:11:13.119Z,83.36
2022-11-28T02:13:49.843Z,83.62
2022-11-28T02:16:20.451Z,83.61
2022-11-28T02:18:51.245Z,83.46
2022-11-28T02:21:25.107Z,83.76
2022-11-28T02:24:02.337Z,83.95
2022-11-28T02:26:30.164Z,83.90
2022-11-28T02:28:57.988Z,84.15
2022-11-28T02:31:28.991Z,84.21
2022-11-28T02:34:10.039Z,84.06
2022-11-28T02:37:00.700Z,84.19
2022-11-28T02:39:35.341Z,84.03
2022-11-28T02:42:15.760Z,84.27
2022-11-28T02:44:47.820Z,84.27
2022-11-28T02:47:22.202Z,84.21
2022-11-28T02:49:55.978Z,83.90
2022-11-28T02:52:34.643Z,83.66
2022-11-28T02:55:03.539Z,83.16
2022-11-28T02:57:36.366Z,83.11
2022-11-28T03:00:22.883Z,82.89
2022-11-28T03:03:10.849Z,83.03
2022-11-28T03:05:47.773Z,83.00
2022-11-28T03:08:15.426Z,83.18
2022-11-28T03:11:01.295Z,83.23
2022-11-28T03:13:44.429Z,83.01
2022-11-28T03:16:25.918Z,83.27
2022-11-28T03:19:04.762Z,83.42
2022-11-28T03:21:35.543Z,83.20
2022-11-28T03:24:06.531Z,83.12
2022-11-28T03:26:44.791Z,83.13
2022-11-28T03:29:16.791Z,83.16
2022-11-28T03:32:03.560Z,83.19
2022-11-28T03:34:32.889Z,83.31
2022-11-28T03:37:03.191Z,83.27
2022-11-28T03:39:34.205Z,83.07
2022-11-28T03:42:05.822Z,83.14
2022-11-28T03:44:38.355Z,83.01
2022-11-28T03:47:06.650Z,82.83
2022-11-28T03:49:36.925Z,83.11
2022-11-28T03:52:06.109Z,83.18
2022-11-28T03:54:53.366Z,83.32
2022-11-28T03:57:21.031Z,83.52
2022-11-28T03:59:53.163Z,83.43
2022-11-28T04:02:27.012Z,83.43
2022-11-28T04:05:13.518Z,83.33
2022-11-28T04:07:41.313Z,82.87
2022-11-28T04:10:27.226Z,82.32
2022-11-28T04:12:58.899Z,82.70
2022-11-28T04:15:29.690Z,82.88
2022-11-28T04:18:03.558Z,82.71
2022-11-28T04:20:54.532Z,82.73
2022-11-28T04:23:22.558Z,82.72
2022-11-28T04:25:57.824Z,82.66
2022-11-28T04:28:27.323Z,82.73
2022-11-28T04:30:56.663Z,82.65
2022-11-28T04:33:25.902Z,82.88
2022-11-28T04:35:54.748Z,83.03
2022-11-28T04:38:24.038Z,82.93
2022-11-28T04:40:53.737Z,82.80
2022-11-28T04:43:25.722Z,82.93
2022-11-28T04:45:56.224Z,83.11
2022-11-28T04:48:24.082Z,83.23
2022-11-28T04:51:09.605Z,83.43
2022-11-28T04:53:43.749Z,83.63
2022-11-28T04:56:20.146Z,83.59
2022-11-28T04:58:49.631Z,83.87
2022-11-28T05:01:29.076Z,84.40
2022-11-28T05:03:57.138Z,84.53
2022-11-28T05:06:26.761Z,84.81
2022-11-28T05:08:54.511Z,85.07
2022-11-28T05:11:22.653Z,85.04
2022-11-28T05:13:50.446Z,84.97
2022-11-28T05:16:18.638Z,84.97
2022-11-28T05:18:46.355Z,84.75
2022-11-28T05:21:14.320Z,84.82
2022-11-28T05:23:43.578Z,84.89
2022-11-28T05:26:12.738Z,85.15
2022-11-28T05:28:42.813Z,85.23
2022-11-28T05:31:10.749Z,85.44
2022-11-28T05:33:39.012Z,85.72
2022-11-28T05:36:12.561Z,85.89
2022-11-28T05:38:42.119Z,85.99
2022-11-28T05:41:10.614Z,85.80
2022-11-28T05:43:38.362Z,86.28
2022-11-28T05:46:06.856Z,86.33
2022-11-28T05:48:35.529Z,86.34
2022-11-28T05:51:07.199Z,86.49
2022-11-28T05:53:35.012Z,86.64
2022-11-28T05:56:09.382Z,86.51
2022-11-28T05:58:37.250Z,86.35
2022-11-28T06:01:12.244Z,86.10
2022-11-28T06:03:40.271Z,85.97
2022-11-28T06:06:12.620Z,85.96
2022-11-28T06:08:41.052Z,86.33
2022-11-28T06:11:09.005Z,85.99
2022-11-28T06:13:36.851Z,86.15
2022-11-28T06:16:08.801Z,86.21
2022-11-28T06:18:36.790Z,86.15
2022-11-28T06:21:05.339Z,86.02
2022-11-28T06:23:33.176Z,85.85
2022-11-28T06:26:08.328Z,85.66
2022-11-28T06:28:36.348Z,85.60
2022-11-28T06:31:04.269Z,85.94
2022-11-28T06:33:32.020Z,85.94
2022-11-28T06:36:01.409Z,86.31
2022-11-28T06:38:29.261Z,86.21
2022-11-28T06:40:58.435Z,86.11
2022-11-28T06:43:26.700Z,86.14
2022-11-28T06:45:54.437Z,85.95
2022-11-28T06:48:22.237Z,85.71
2022-11-28T06:50:50.453Z,85.93
2022-11-28T06:53:18.467Z,85.94
2022-11-28T06:55:46.614Z,85.75
2022-11-28T06:58:14.308Z,85.53
2022-11-28T07:00:42.232Z,85.67
2022-11-28T07:03:10.455Z,85.84
2022-11-28T07:05:38.691Z,85.97
2022-11-28T07:08:06.816Z,85.84
2022-11-28T07:10:34.610Z,85.67
2022-11-28T07:13:05.399Z,85.63
2022-11-28T07:15:33.546Z,85.51
2022-11-28T07:18:01.289Z,85.23
2022-11-28T07:20:29.091Z,85.34
2022-11-28T07:22:56.871Z,85.38
2022-11-28T07:25:24.566Z,85.39
2022-11-28T07:27:52.433Z,85.60
2022-11-28T07:30:20.301Z,85.82
2022-11-28T07:32:48.039Z,85.62
2022-11-28T07:35:15.913Z,85.51
2022-11-28T07:37:43.687Z,85.56
2022-11-28T07:40:13.595Z,85.35
2022-11-28T07:42:41.394Z,85.44
2022-11-28T07:45:09.633Z,85.39
2022-11-28T07:47:37.496Z,85.38
2022-11-28T07:50:05.729Z,85.00
2022-11-28T07:52:33.579Z,84.96
2022-11-28T07:55:01.531Z,84.71
2022-11-28T07:57:30.815Z,84.43
2022-11-28T07:59:58.646Z,84.63
2022-11-28T08:02:27.352Z,84.65
2022-11-28T08:04:55.732Z,84.65
2022-11-28T08:07:23.764Z,84.55
2022-11-28T08:09:51.572Z,84.97
2022-11-28T08:12:19.675Z,85.06
2022-11-28T08:14:47.663Z,84.85
2022-11-28T08:17:15.353Z,85.19
2022-11-28T08:19:43.093Z,84.98
2022-11-28T08:22:10.767Z,85.06
2022-11-28T08:24:38.517Z,84.71
2022-11-28T08:27:06.225Z,84.90
2022-11-28T08:29:33.944Z,85.13
2022-11-28T08:32:01.896Z,84.98
2022-11-28T08:34:29.774Z,84.77
2022-11-28T08:36:57.513Z,84.68
2022-11-28T08:39:25.657Z,84.39
2022-11-28T08:41:57.374Z,84.45
2022-11-28T08:44:26.467Z,84.14
2022-11-28T08:46:55.129Z,84.16
2022-11-28T08:49:22.875Z,83.68
2022-11-28T08:51:50.571Z,83.82
2022-11-28T08:54:18.203Z,83.99
2022-11-28T08:56:47.297Z,83.77
2022-11-28T08:59:15.181Z,83.52
2022-11-28T09:01:43.155Z,83.49
2022-11-28T09:04:11.047Z,83.07
2022-11-28T09:06:39.484Z,82.81
2022-11-28T09:09:08.227Z,82.31
2022-11-28T09:11:36.223Z,82.13
2022-11-28T09:14:03.934Z,82.12
2022-11-28T09:16:31.742Z,82.16
2022-11-28T09:18:59.585Z,81.86
2022-11-28T09:21:27.400Z,81.62
2022-11-28T09:23:56.267Z,81.40
2022-11-28T09:26:25.431Z,81.18
2022-11-28T09:28:53.752Z,79.87
2022-11-28T09:31:21.854Z,78.66
2022-11-28T09:33:49.769Z,78.15
2022-11-28T09:36:18.940Z,77.95
2022-11-28T09:38:46.718Z,77.40
2022-11-28T09:41:20.595Z,76.90
2022-11-28T09:43:54.568Z,76.65
2022-11-28T09:46:28.440Z,76.24
2022-11-28T09:48:58.254Z,76.03
2022-11-28T09:51:35.551Z,75.64
2022-11-28T09:54:03.257Z,74.94
2022-11-28T09:56:30.943Z,74.88
2022-11-28T09:59:03.024Z,74.46
2022-11-28T10:01:34.497Z,73.55
2022-11-28T10:04:05.519Z,72.12
2022-11-28T10:06:52.118Z,72.20
2022-11-28T10:09:33.265Z,72.17
2022-11-28T10:12:06.794Z,71.96
2022-11-28T10:14:46.927Z,72.04
2022-11-28T10:17:29.959Z,71.35
2022-11-28T10:20:02.658Z,71.42
2022-11-28T10:22:39.819Z,71.09
2022-11-28T10:25:14.283Z,70.66
2022-11-28T10:27:42.617Z,70.68
2022-11-28T10:30:22.663Z,70.36
2022-11-28T10:32:53.757Z,69.67
2022-11-28T10:35:26.749Z,69.68
2022-11-28T10:37:56.339Z,69.32
2022-11-28T10:40:39.563Z,69.15
2022-11-28T10:43:16.311Z,69.03
2022-11-28T10:46:00.787Z,68.58
2022-11-28T10:48:43.773Z,68.40
2022-11-28T10:51:30.875Z,67.45
2022-11-28T10:54:16.492Z,67.65
2022-11-28T10:56:50.208Z,67.05
2022-11-28T10:59:23.827Z,66.86
2022-11-28T11:01:52.416Z,67.04
2022-11-28T11:04:22.593Z,67.25
2022-11-28T11:07:08.241Z,67.30
2022-11-28T11:09:39.080Z,66.38
2022-11-28T11:12:12.156Z,66.64
2022-11-28T11:14:40.010Z,66.80
2022-11-28T11:17:07.694Z,66.24
2022-11-28T11:19:36.616Z,65.97
2022-11-28T11:22:22.131Z,65.63
2022-11-28T11:25:24.816Z,65.69
2022-11-28T11:27:54.483Z,65.34
2022-11-28T11:30:27.118Z,64.76
2022-11-28T11:32:56.371Z,65.20
2022-11-28T11:35:25.624Z,65.07
2022-11-28T11:37:53.739Z,65.12
2022-11-28T11:40:25.262Z,64.97
2022-11-28T11:42:55.593Z,64.95
2022-11-28T11:45:24.227Z,64.66
2022-11-28T11:47:51.922Z,64.63
2022-11-28T11:50:21.568Z,64.49
2022-11-28T11:53:01.351Z,64.59
2022-11-28T11:55:30.434Z,64.82
2022-11-28T11:58:05.248Z,64.52
2022-11-28T12:00:39.091Z,63.86
2022-11-28T12:03:14.260Z,64.06
2022-11-28T12:06:12.864Z,64.04
2022-11-28T12:08:41.062Z,63.98
2022-11-28T12:11:20.047Z,63.99
2022-11-28T12:13:48.912Z,63.68
2022-11-28T12:16:34.781Z,63.65
2022-11-28T12:19:02.577Z,63.39
2022-11-28T12:21:50.582Z,62.91
2022-11-28T12:24:25.513Z,63.05
2022-11-28T12:26:56.380Z,63.20
2022-11-28T12:29:33.246Z,62.98
2022-11-28T12:32:07.109Z,63.37
2022-11-28T12:34:53.127Z,63.36
2022-11-28T12:38:09.155Z,63.29
2022-11-28T12:40:46.024Z,63.21
2022-11-28T12:43:19.971Z,63.02
2022-11-28T12:46:05.500Z,63.13
2022-11-28T12:48:50.188Z,63.07
2022-11-28T12:51:20.953Z,63.16
2022-11-28T12:53:56.224Z,63.27
2022-11-28T12:56:23.897Z,62.93
2022-11-28T12:58:55.620Z,63.18
2022-11-28T13:01:23.397Z,63.43
2022-11-28T13:03:51.146Z,63.43
2022-11-28T13:06:36.811Z,63.48
2022-11-28T13:09:18.795Z,63.26
2022-11-28T13:12:01.521Z,63.36
2022-11-28T13:14:36.388Z,63.13
2022-11-28T13:17:13.556Z,63.08
2022-11-28T13:20:00.092Z,62.91
2022-11-28T13:22:34.189Z,62.78
2022-11-28T13:25:16.956Z,63.20
2022-11-28T13:27:49.742Z,63.29
2022-11-28T13:30:25.541Z,63.28
2022-11-28T13:32:59.524Z,63.19
2022-11-28T13:35:28.570Z,63.17
2022-11-28T13:41:05.790Z,63.72
2022-11-28T13:43:46.925Z,63.80
2022-11-28T13:46:15.032Z,63.93
2022-11-28T13:51:33.075Z,64.37
2022-11-28T13:54:23.059Z,64.36
2022-11-28T13:57:09.763Z,64.47
2022-11-28T13:59:38.087Z,64.53
2022-11-28T14:02:18.798Z,64.81
2022-11-28T14:04:48.215Z,65.08
2022-11-28T14:07:22.501Z,65.04
2022-11-28T14:09:52.231Z,65.10
2022-11-28T14:12:34.242Z,64.94
2022-11-28T14:15:01.990Z,64.93
2022-11-28T14:17:33.263Z,65.16
2022-11-28T14:20:01.026Z,65.30
2022-11-28T14:22:49.037Z,65.08
2022-11-28T14:25:31.652Z,65.14
2022-11-28T14:28:04.417Z,65.26
2022-11-28T14:30:40.000Z,64.95
2022-11-28T14:33:15.932Z,65.12
2022-11-28T14:35:53.074Z,64.79
2022-11-28T14:38:35.865Z,64.97
2022-11-28T14:41:09.340Z,64.95
2022-11-28T14:43:37.121Z,64.62
2022-11-28T14:46:24.080Z,64.68
2022-11-28T14:48:57.979Z,64.84
2022-11-28T14:51:44.232Z,64.91
2022-11-28T14:54:22.034Z,65.54
2022-11-28T14:56:52.963Z,65.80
2022-11-28T14:59:29.148Z,65.96
2022-11-28T15:02:06.228Z,65.61
2022-11-28T15:04:52.562Z,65.41
2022-11-28T15:07:29.546Z,65.38
2022-11-28T15:10:07.457Z,65.42
2022-11-28T15:12:54.215Z,65.78
2022-11-28T15:15:22.755Z,65.63
2022-11-28T15:17:51.604Z,65.71
2022-11-28T15:20:23.122Z,65.73
2022-11-28T15:22:50.980Z,65.96
2022-11-28T15:25:19.967Z,65.81
2022-11-28T15:27:48.059Z,65.84
2022-11-28T15:30:20.043Z,66.01
2022-11-28T15:32:48.111Z,66.15
2022-11-28T15:35:17.754Z,66.21
2022-11-28T15:37:50.433Z,66.30
2022-11-28T15:40:21.253Z,66.19
2022-11-28T15:42:49.616Z,66.35
2022-11-28T15:45:20.370Z,66.48
2022-11-28T15:47:49.269Z,66.50
2022-11-28T15:50:20.060Z,66.83
2022-11-28T15:52:59.855Z,66.97
2022-11-28T15:55:32.200Z,67.34
2022-11-28T15:58:10.250Z,67.19
2022-11-28T16:00:39.653Z,67.21
2022-11-28T16:03:10.498Z,67.19
2022-11-28T16:05:39.026Z,67.11
2022-11-28T16:08:17.148Z,66.78
2022-11-28T16:10:45.624Z,66.74
2022-11-28T16:13:16.292Z,66.88
2022-11-28T16:15:51.657Z,67.01
2022-11-28T16:18:19.759Z,67.17
2022-11-28T16:20:48.141Z,67.27
2022-11-28T16:23:35.981Z,66.99
2022-11-28T16:26:05.364Z,67.07
2022-11-28T16:28:34.768Z,67.02
2022-11-28T16:31:02.682Z,67.05
2022-11-28T16:33:41.039Z,66.87
2022-11-28T16:36:08.814Z,66.65
2022-11-28T16:38:37.914Z,66.62
2022-11-28T16:41:05.827Z,66.76
2022-11-28T16:43:38.410Z,66.80
2022-11-28T16:46:08.684Z,66.78
2022-11-28T16:48:37.807Z,66.82
2022-11-28T16:51:11.704Z,66.90
2022-11-28T16:53:46.469Z,66.88
2022-11-28T16:56:29.806Z,67.04
2022-11-28T16:59:14.231Z,66.80
2022-11-28T17:01:49.248Z,66.83
2022-11-28T17:04:20.438Z,66.97
2022-11-28T17:06:48.408Z,67.27
2022-11-28T17:09:16.320Z,67.25
2022-11-28T17:11:45.544Z,67.11
2022-11-28T17:14:14.126Z,67.48
2022-11-28T17:16:42.446Z,67.50
2022-11-28T17:19:10.418Z,67.32
2022-11-28T17:21:40.111Z,67.54
2022-11-28T17:24:14.975Z,67.79
2022-11-28T17:26:42.818Z,67.90
2022-11-28T17:29:11.814Z,67.95
2022-11-28T17:31:42.719Z,68.07
2022-11-28T17:34:33.589Z,68.20
2022-11-28T17:37:02.087Z,68.21
2022-11-28T17:39:29.881Z,68.55
2022-11-28T17:41:59.061Z,68.56
2022-11-28T17:44:36.341Z,68.64
2022-11-28T17:47:04.336Z,68.78
2022-11-28T17:49:32.282Z,69.12
2022-11-28T17:51:59.943Z,69.27
2022-11-28T17:54:27.844Z,69.45
2022-11-28T17:56:55.708Z,69.49
2022-11-28T17:59:23.937Z,69.71
2022-11-28T18:01:51.894Z,70.22
2022-11-28T18:04:19.740Z,70.12
2022-11-28T18:06:48.471Z,70.06
2022-11-28T18:09:16.262Z,69.71
2022-11-28T18:11:46.300Z,69.84
2022-11-28T18:14:14.176Z,70.02
2022-11-28T18:16:43.893Z,70.26
2022-11-28T18:19:11.781Z,70.52
2022-11-28T18:21:39.530Z,70.63
2022-11-28T18:24:07.511Z,70.80
2022-11-28T18:26:36.644Z,71.17
2022-11-28T18:29:04.644Z,71.73
2022-11-28T18:31:34.251Z,72.01
2022-11-28T18:34:03.500Z,72.49
2022-11-28T18:36:32.310Z,72.48
2022-11-28T18:39:01.718Z,72.48
2022-11-28T18:41:29.908Z,72.55
2022-11-28T18:43:59.244Z,72.64
2022-11-28T18:46:27.649Z,72.40
2022-11-28T18:48:55.603Z,72.62
2022-11-28T18:51:27.759Z,72.45
2022-11-28T18:53:56.214Z,72.23
2022-11-28T18:56:24.976Z,72.34
2022-11-28T18:58:53.630Z,72.63
2022-11-28T19:01:28.314Z,72.43
2022-11-28T19:03:58.148Z,72.38
2022-11-28T19:06:26.378Z,72.87
2022-11-28T19:08:58.766Z,73.09
2022-11-28T19:11:28.423Z,73.34
2022-11-28T19:13:56.688Z,73.37
2022-11-28T19:16:26.169Z,73.32
2022-11-28T19:18:54.077Z,73.27
2022-11-28T19:21:23.379Z,73.19
2022-11-28T19:23:51.620Z,73.28
2022-11-28T19:26:20.567Z,73.60
2022-11-28T19:28:48.366Z,73.55
2022-11-28T19:31:20.526Z,73.70
2022-11-28T19:34:00.871Z,73.95
2022-11-28T19:36:30.296Z,73.87
2022-11-28T19:38:59.253Z,73.78
2022-11-28T19:41:27.567Z,73.77
2022-11-28T19:43:55.897Z,73.61
2022-11-28T19:46:23.763Z,73.28
2022-11-28T19:48:51.871Z,73.26
2022-11-28T19:51:20.536Z,72.90
2022-11-28T19:53:48.555Z,72.77
2022-11-28T19:56:17.551Z,72.65
2022-11-28T19:58:46.311Z,72.56
2022-11-28T20:01:15.434Z,72.37
2022-11-28T20:03:44.093Z,72.39
2022-11-28T20:06:13.557Z,72.39
2022-11-28T20:08:41.554Z,72.36
2022-11-28T20:11:17.086Z,72.31
2022-11-28T20:13:45.394Z,72.72
2022-11-28T20:16:14.321Z,73.14
2022-11-28T20:18:43.158Z,73.46
2022-11-28T20:21:15.182Z,73.42
2022-11-28T20:23:42.901Z,73.17
2022-11-28T20:26:11.104Z,73.36
2022-11-28T20:28:39.640Z,73.62
2022-11-28T20:31:15.583Z,73.59
2022-11-28T20:33:43.480Z,73.59
2022-11-28T20:36:15.709Z,73.59
2022-11-28T20:38:43.549Z,73.64
2022-11-28T20:41:12.239Z,74.06
2022-11-28T20:43:40.792Z,74.24
2022-11-28T20:46:13.416Z,74.34
2022-11-28T20:48:42.293Z,74.51
2022-11-28T20:51:20.520Z,74.30
2022-11-28T20:53:48.980Z,74.17
2022-11-28T20:56:20.981Z,74.25
2022-11-28T20:58:49.208Z,74.56
2022-11-28T21:01:18.624Z,74.70
2022-11-28T21:03:46.591Z,74.88
2022-11-28T21:06:14.269Z,74.94
2022-11-28T21:08:42.272Z,74.75
2022-11-28T21:11:25.271Z,74.96
2022-11-28T21:14:00.843Z,75.23
2022-11-28T21:16:31.321Z,75.39
2022-11-28T21:19:01.951Z,75.48
2022-11-28T21:21:31.077Z,75.75
2022-11-28T21:24:00.635Z,75.99
2022-11-28T21:26:30.557Z,76.03
2022-11-28T21:29:01.012Z,76.12
2022-11-28T21:31:31.256Z,76.05
2022-11-28T21:33:59.778Z,76.12
2022-11-28T21:36:28.893Z,76.46
2022-11-28T21:38:58.155Z,76.61
2022-11-28T21:41:30.530Z,76.48
2022-11-28T21:43:59.119Z,76.27
2022-11-28T21:46:27.382Z,76.25
2022-11-28T21:48:55.108Z,76.43
2022-11-28T21:51:24.200Z,76.45
2022-11-28T21:53:52.369Z,76.62
2022-11-28T21:56:22.038Z,76.80
2022-11-28T21:58:49.871Z,77.13
2022-11-28T22:01:18.101Z,77.50
2022-11-28T22:03:45.857Z,77.38
2022-11-28T22:06:21.917Z,77.38
2022-11-28T22:08:50.235Z,77.39
2022-11-28T22:11:18.920Z,77.10
2022-11-28T22:13:47.257Z,77.07
2022-11-28T22:16:19.478Z,77.17
2022-11-28T22:18:47.735Z,77.30
2022-11-28T22:24:04.448Z,77.28
2022-11-28T22:26:32.349Z,77.32
2022-11-28T22:29:01.157Z,77.64
2022-11-28T22:31:29.220Z,77.82
2022-11-28T22:33:57.336Z,77.86
2022-11-28T22:36:25.090Z,78.06
2022-11-28T22:38:57.115Z,78.18
2022-11-28T22:41:28.812Z,78.21
2022-11-28T22:43:59.600Z,78.21
2022-11-28T22:46:28.029Z,78.12
2022-11-28T22:48:55.874Z,78.32
2022-11-28T22:51:25.025Z,78.48
2022-11-28T22:53:56.584Z,78.53
2022-11-28T22:56:24.412Z,78.57
2022-11-28T22:58:52.821Z,78.70
2022-11-28T23:01:31.059Z,78.93
2022-11-28T23:03:59.507Z,79.27
2022-11-28T23:06:28.833Z,79.26
2022-11-28T23:08:57.630Z,79.10
2022-11-28T23:11:26.915Z,78.87
2022-11-28T23:13:55.315Z,78.96
2022-11-28T23:16:27.445Z,79.19
2022-11-28T23:18:56.877Z,79.54
2022-11-28T23:21:25.908Z,79.72
2022-11-28T23:23:53.850Z,79.76
2022-11-28T23:26:22.750Z,80.00
2022-11-28T23:28:51.189Z,79.97
2022-11-28T23:31:20.895Z,80.02
2022-11-28T23:33:49.152Z,79.79
2022-11-28T23:36:18.767Z,79.53
2022-11-28T23:38:47.761Z,79.15
2022-11-28T23:41:15.561Z,78.97
2022-11-28T23:43:43.288Z,79.32
2022-11-28T23:46:12.000Z,79.40
2022-11-28T23:48:40.074Z,79.40
2022-11-28T23:51:08.495Z,79.56
2022-11-28T23:53:36.579Z,79.80
2022-11-28T23:56:15.118Z,79.98
2022-11-28T23:58:43.567Z,80.07
